Time;durP1;ratioP1;P1;durP2;ratioP2;P2;SDS_P1;SDS_P2;PMS_P1;PMS_P2;Temp;Humidity;BMP_temperature;BMP_pressure;BME280_temperature;BME280_humidity;BME280_pressure;Samples;Min_cycle;Max_cycle;Signal;HPM_P1;HPM_P2
2023/05/14 00:00:07;;;;;;;11.13;7.53;;;;;;;15.39;100.00;101853.97;5047191;28;20024;-70
2023/05/14 00:02:32;;;;;;;;;;;;;;;15.62;100.00;101857.09;5051770;28;20082;-71
2023/05/14 00:04:57;;;;;;;10.10;8.17;;;;;;;15.47;100.00;101856.78;5050182;28;19916;-70
2023/05/14 00:07:29;;;;;;;;;;;;;;;15.64;100.00;101853.28;5053382;28;20292;-71
2023/05/14 00:09:54;;;;;;;10.57;8.80;;;;;;;15.35;100.00;101842.69;5048865;28;19920;-71
2023/05/14 00:12:19;;;;;;;;;;;;;;;15.61;100.00;101839.28;5054485;28;20101;-71
2023/05/14 00:14:45;;;;;;;12.07;8.87;;;;;;;15.30;100.00;101844.97;5047761;28;19921;-71
2023/05/14 00:17:10;;;;;;;12.25;8.60;;;;;;;15.31;100.00;101843.97;5051338;28;20024;-71
2023/05/14 00:19:35;;;;;;;;;;;;;;;15.54;100.00;101836.34;5051674;28;20021;-71
2023/05/14 00:22:00;;;;;;;11.95;8.45;;;;;;;15.29;100.00;101838.75;5053147;28;21705;-71
2023/05/14 00:24:26;;;;;;;;;;;;;;;15.52;100.00;101837.50;5051922;28;20033;-70
2023/05/14 00:26:51;;;;;;;16.25;8.32;;;;;;;15.25;100.00;101837.38;5050031;28;20290;-70
2023/05/14 00:29:17;;;;;;;;;;;;;;;15.48;100.00;101837.81;5053267;28;20031;-70
2023/05/14 00:31:42;;;;;;;14.33;8.40;;;;;;;15.28;100.00;101839.72;5049189;28;19956;-71
2023/05/14 00:34:07;;;;;;;;;;;;;;;15.44;100.00;101838.25;5050643;28;20297;-71
2023/05/14 00:36:32;;;;;;;13.93;9.23;;;;;;;15.20;100.00;101838.78;5055654;28;19966;-71
2023/05/14 00:38:57;;;;;;;;;;;;;;;15.40;100.00;101826.94;5054194;28;20413;-71
2023/05/14 00:41:23;;;;;;;13.17;9.77;;;;;;;15.04;100.00;101831.34;5050846;28;19913;-71
2023/05/14 00:43:48;;;;;;;11.75;9.68;;;;;;;14.96;100.00;101834.78;5051675;28;20394;-71
2023/05/14 00:46:14;;;;;;;;;;;;;;;15.25;100.00;101826.63;5050831;28;20085;-71
2023/05/14 00:48:39;;;;;;;10.50;9.02;;;;;;;14.96;100.00;101817.84;5047563;28;19921;-71
2023/05/14 00:51:05;;;;;;;;;;;;;;;15.18;100.00;101824.66;5059632;28;20097;-71
2023/05/14 00:53:30;;;;;;;11.02;9.20;;;;;;;14.90;100.00;101821.94;5053825;28;19924;-71
2023/05/14 00:55:56;;;;;;;;;;;;;;;15.09;100.00;101810.28;5055523;28;20029;-71
2023/05/14 00:58:22;;;;;;;10.75;9.55;;;;;;;14.80;100.00;101821.16;5056603;28;19965;-70
2023/05/14 01:00:47;;;;;;;11.40;10.23;;;;;;;14.66;100.00;101817.94;5052167;28;20063;-71
2023/05/14 01:03:12;;;;;;;;;;;;;;;14.94;100.00;101816.13;5053564;28;20440;-70
2023/05/14 01:06:06;;;;;;;12.68;9.88;;;;;;;14.75;100.00;101817.03;5052722;28;19923;-71
2023/05/14 01:08:45;;;;;;;12.00;10.35;;;;;;;14.68;100.00;101821.31;5051894;28;20032;-70
2023/05/14 01:11:18;;;;;;;12.05;10.82;;;;;;;14.56;100.00;101817.91;5059820;28;20063;-70
2023/05/14 01:14:06;;;;;;;15.63;10.43;;;;;;;14.64;100.00;101822.59;5053366;28;20016;-70
2023/05/14 01:16:33;;;;;;;15.55;11.40;;;;;;;14.53;100.00;101810.16;5051329;28;20039;-70
2023/05/14 01:19:00;;;;;;;12.90;11.20;;;;;;;14.50;100.00;101814.97;5060787;28;20057;-70
2023/05/14 01:21:36;;;;;;;12.60;11.32;;;;;;;14.47;100.00;101810.72;5060938;28;20406;-70
2023/05/14 01:24:01;;;;;;;13.20;10.60;;;;;;;14.41;100.00;101819.38;5061081;28;20035;-70
2023/05/14 01:26:27;;;;;;;;;;;;;;;14.61;100.00;101814.84;5057700;28;20028;-70
2023/05/14 01:28:55;;;;;;;13.57;12.18;;;;;;;14.31;100.00;101816.69;5053034;28;20018;-70
2023/05/14 01:31:26;;;;;;;14.63;12.57;;;;;;;14.15;100.00;101809.22;5061799;28;20024;-70
2023/05/14 01:33:55;;;;;;;14.20;12.25;;;;;;;14.02;100.00;101808.66;5058691;28;20449;-70
2023/05/14 01:36:21;;;;;;;13.20;11.88;;;;;;;14.09;100.00;101800.88;5052061;28;20024;-70
2023/05/14 01:38:50;;;;;;;12.63;11.32;;;;;;;14.03;100.00;101807.69;5053544;28;20021;-70
2023/05/14 01:41:16;;;;;;;16.73;11.85;;;;;;;14.01;100.00;101798.94;5051983;28;20028;-70
2023/05/14 01:43:43;;;;;;;18.67;12.73;;;;;;;13.98;100.00;101799.22;5054071;28;20887;-70
2023/05/14 01:46:08;;;;;;;13.75;12.35;;;;;;;13.96;100.00;101795.81;5055977;28;20037;-70
2023/05/14 01:48:34;;;;;;;;;;;;;;;14.18;100.00;101800.91;5055216;28;20118;-70
2023/05/14 01:50:59;;;;;;;15.27;12.67;;;;;;;13.87;100.00;101796.69;5058987;28;20286;-70
2023/05/14 01:53:24;;;;;;;;;;;;;;;14.09;100.00;101804.41;5052945;28;20295;-70
2023/05/14 01:55:50;;;;;;;17.00;13.50;;;;;;;13.78;100.00;101806.41;5053203;28;19924;-70
2023/05/14 01:58:15;;;;;;;;;;;;;;;14.01;100.00;101806.97;5052960;28;20406;-71
2023/05/14 02:00:40;;;;;;;18.67;14.40;;;;;;;13.68;100.00;101802.88;5053642;28;20062;-71
2023/05/14 02:03:05;;;;;;;;;;;;;;;13.93;100.00;101798.78;5055305;28;20340;-71
2023/05/14 02:05:31;;;;;;;15.83;13.73;;;;;;;13.69;100.00;101796.50;5053205;28;19920;-71
2023/05/14 02:07:56;;;;;;;;;;;;;;;13.87;100.00;101794.84;5051995;28;20017;-71
2023/05/14 02:10:21;;;;;;;14.97;13.37;;;;;;;13.58;100.00;101802.84;5060122;28;20657;-71
2023/05/14 02:12:46;;;;;;;;;;;;;;;13.80;100.00;101793.72;5049670;28;20033;-71
2023/05/14 02:15:11;;;;;;;22.27;14.80;;;;;;;13.47;100.00;101794.94;5049695;28;19916;-71
2023/05/14 02:17:37;;;;;;;;;;;;;;;13.72;100.00;101788.19;5057226;28;20703;-71
2023/05/14 02:20:03;;;;;;;17.25;14.73;;;;;;;13.46;100.00;101790.53;5055073;28;19913;-71
2023/05/14 02:22:28;;;;;;;21.05;15.45;;;;;;;13.31;100.00;101788.25;5055861;28;20056;-71
2023/05/14 02:24:53;;;;;;;;;;;;;;;13.52;100.00;101793.53;5051776;28;20057;-69
2023/05/14 02:27:18;;;;;;;21.30;14.83;;;;;;;13.31;100.00;101790.94;5060205;28;19990;-71
2023/05/14 02:29:44;;;;;;;;;;;;;;;13.48;100.00;101799.28;5058502;28;20021;-70
2023/05/14 02:32:09;;;;;;;16.90;15.10;;;;;;;13.33;100.00;101801.53;5052339;28;19927;-71
2023/05/14 02:34:34;;;;;;;;;;;;;;;13.46;100.00;101791.38;5052118;28;20185;-71
2023/05/14 02:37:00;;;;;;;18.05;16.00;;;;;;;13.32;100.00;101783.75;5056471;28;20228;-71
2023/05/14 02:39:25;;;;;;;16.17;14.60;;;;;;;13.26;100.00;101787.78;5050853;28;20036;-71
2023/05/14 02:41:50;;;;;;;;;;;;;;;13.49;100.00;101784.91;5055694;28;20071;-71
2023/05/14 02:44:15;;;;;;;17.23;15.30;;;;;;;13.32;100.00;101784.59;5057620;28;19912;-70
2023/05/14 02:46:42;;;;;;;17.80;15.47;;;;;;;13.33;100.00;101786.28;5055977;28;20823;-71
2023/05/14 02:49:07;;;;;;;17.45;15.75;;;;;;;13.24;100.00;101785.25;5048421;28;20290;-71
2023/05/14 02:51:32;;;;;;;;;;;;;;;13.47;100.00;101793.09;5053835;28;20390;-71
2023/05/14 02:53:58;;;;;;;21.80;15.70;;;;;;;13.27;100.00;101788.63;5053592;28;19934;-70
2023/05/14 02:56:23;;;;;;;;;;;;;;;13.46;100.00;101790.53;5057046;28;20056;-70
2023/05/14 02:58:48;;;;;;;18.63;15.60;;;;;;;13.27;100.00;101791.31;5057532;28;19955;-70
2023/05/14 03:01:13;;;;;;;;;;;;;;;13.46;100.00;101787.88;5058047;28;20039;-71
2023/05/14 03:03:39;;;;;;;23.00;16.20;;;;;;;13.30;100.00;101793.72;5053822;28;19962;-71
2023/05/14 03:06:04;;;;;;;;;;;;;;;13.45;100.00;101789.72;5058304;28;20039;-71
2023/05/14 03:08:30;;;;;;;17.48;15.88;;;;;;;13.26;100.00;101787.78;5064265;28;19963;-71
2023/05/14 03:10:55;;;;;;;;;;;;;;;13.43;100.00;101780.97;5057630;28;20064;-70
2023/05/14 03:13:20;;;;;;;20.05;17.10;;;;;;;13.21;100.00;101788.19;5057203;28;19985;-70
2023/05/14 03:15:46;;;;;;;;;;;;;;;13.38;100.00;101781.38;5060485;28;20107;-70
2023/05/14 03:18:12;;;;;;;20.20;16.67;;;;;;;13.12;100.00;101780.97;5059980;28;19917;-71
2023/05/14 03:20:37;;;;;;;21.55;17.05;;;;;;;13.08;100.00;101779.56;5051256;28;20533;-71
2023/05/14 03:23:02;;;;;;;;;;;;;;;13.30;100.00;101778.50;5062622;28;20020;-71
2023/05/14 03:25:28;;;;;;;21.85;17.15;;;;;;;12.97;100.00;101774.31;5061772;28;19920;-71
2023/05/14 03:27:53;;;;;;;;;;;;;;;13.23;100.00;101769.31;5061885;28;20024;-70
2023/05/14 03:30:18;;;;;;;23.63;16.77;;;;;;;12.89;100.00;101768.78;5057469;28;19928;-71
2023/05/14 03:32:44;;;;;;;20.80;17.75;;;;;;;12.88;100.00;101761.72;5062463;28;20329;-71
2023/05/14 03:35:09;;;;;;;;;;;;;;;13.11;100.00;101763.22;5055629;28;20672;-71
2023/05/14 03:37:35;;;;;;;20.08;17.38;;;;;;;12.79;100.00;101760.72;5059993;28;19966;-71
2023/05/14 03:40:00;;;;;;;;;;;;;;;13.04;100.00;101768.28;5060958;28;20024;-71
2023/05/14 03:42:25;;;;;;;19.90;17.13;;;;;;;12.82;100.00;101765.81;5057907;28;19916;-71
2023/05/14 03:44:51;;;;;;;22.27;18.02;;;;;;;12.78;100.00;101762.56;5060568;28;20802;-71
2023/05/14 03:47:16;;;;;;;23.45;18.55;;;;;;;12.73;100.00;101759.44;5058146;28;20433;-71
2023/05/14 03:49:41;;;;;;;;;;;;;;;12.92;100.00;101763.16;5063222;28;20035;-71
2023/05/14 03:52:07;;;;;;;20.83;18.42;;;;;;;12.74;100.00;101763.78;5051941;28;20011;-70
2023/05/14 03:54:32;;;;;;;;;;;;;;;12.90;100.00;101767.78;5063039;28;20060;-71
2023/05/14 03:56:57;;;;;;;20.13;18.02;;;;;;;12.60;100.00;101764.97;5050947;28;20329;-71
2023/05/14 03:59:22;;;;;;;23.83;19.90;;;;;;;12.59;100.00;101767.81;5057238;28;20053;-71
2023/05/14 04:01:48;;;;;;;23.45;20.50;;;;;;;12.44;100.00;101768.13;5064181;28;20669;-71
2023/05/14 04:04:14;;;;;;;24.02;20.65;;;;;;;12.43;100.00;101763.78;5054852;28;20032;-69
2023/05/14 04:06:39;;;;;;;;;;;;;;;12.66;100.00;101763.63;5067304;28;20036;-69
2023/05/14 04:09:04;;;;;;;24.48;20.25;;;;;;;12.43;100.00;101755.75;5058483;28;19967;-69
2023/05/14 04:11:30;;;;;;;;;;;;;;;12.61;100.00;101758.66;5054949;28;20029;-69
2023/05/14 04:13:55;;;;;;;22.87;20.13;;;;;;;12.33;100.00;101754.84;5052144;28;20111;-69
2023/05/14 04:16:20;;;;;;;22.45;20.15;;;;;;;12.33;100.00;101757.53;5059056;28;20881;-69
2023/05/14 04:18:45;;;;;;;;;;;;;;;12.56;100.00;101762.72;5055700;28;20037;-69
2023/05/14 04:21:11;;;;;;;23.63;20.87;;;;;;;12.32;100.00;101758.50;5061215;28;20251;-69
2023/05/14 04:23:36;;;;;;;24.38;21.67;;;;;;;12.27;100.00;101766.94;5063326;28;20286;-69
2023/05/14 04:26:02;;;;;;;;;;;;;;;12.52;100.00;101762.16;5059791;28;20025;-69
2023/05/14 04:28:27;;;;;;;22.40;20.05;;;;;;;12.26;100.00;101751.84;5056527;28;19920;-69
2023/05/14 04:30:53;;;;;;;;;;;;;;;12.51;100.00;101754.25;5059498;28;20029;-69
2023/05/14 04:33:18;;;;;;;23.27;20.15;;;;;;;12.33;100.00;101760.19;5059432;28;19912;-69
2023/05/14 04:35:44;;;;;;;;;;;;;;;12.51;100.00;101760.44;5065722;28;20033;-70
2023/05/14 04:38:10;;;;;;;21.77;19.45;;;;;;;12.30;100.00;101757.78;5061401;28;20469;-69
2023/05/14 04:40:35;;;;;;;24.25;21.15;;;;;;;12.30;100.00;101755.94;5061383;28;20036;-70
2023/05/14 04:43:00;;;;;;;;;;;;;;;12.49;100.00;101759.72;5060856;28;20060;-69
2023/05/14 04:45:26;;;;;;;24.27;20.90;;;;;;;12.24;100.00;101764.50;5059323;28;19921;-69
2023/05/14 04:47:51;;;;;;;23.87;21.33;;;;;;;12.32;100.00;101763.84;5064389;28;20294;-68
2023/05/14 04:50:16;;;;;;;27.67;22.75;;;;;;;12.35;100.00;101763.59;5065251;28;20701;-68
2023/05/14 04:52:42;;;;;;;28.90;24.98;;;;;;;12.36;100.00;101759.94;5064745;28;20074;-69
2023/05/14 04:55:08;;;;;;;40.65;34.40;;;;;;;12.35;100.00;101762.75;5060006;28;20107;-69
2023/05/14 04:57:33;;;;;;;;;;;;;;;12.56;100.00;101768.91;5059453;28;20086;-69
2023/05/14 04:59:58;;;;;;;27.33;22.93;;;;;;;12.42;100.00;101769.25;5059218;28;19919;-69
2023/05/14 05:02:23;;;;;;;27.17;22.42;;;;;;;12.35;100.00;101766.25;5062295;28;20295;-69
2023/05/14 05:04:48;;;;;;;;;;;;;;;12.63;100.00;101771.91;5061589;28;20488;-69
2023/05/14 05:07:14;;;;;;;24.43;19.70;;;;;;;12.49;100.00;101768.59;5060847;28;20221;-68
2023/05/14 05:09:39;;;;;;;22.20;19.27;;;;;;;12.48;100.00;101774.06;5066535;28;20343;-69
2023/05/14 05:12:05;;;;;;;;;;;;;;;12.68;100.00;101772.38;5063715;28;20045;-69
2023/05/14 05:14:30;;;;;;;25.73;20.33;;;;;;;12.56;100.00;101776.09;5066172;28;19923;-69
2023/05/14 05:16:55;;;;;;;23.92;19.35;;;;;;;12.50;100.00;101777.50;5076501;28;20449;-69
2023/05/14 05:19:21;;;;;;;;;;;;;;;12.73;100.00;101779.97;5062254;28;20029;-69
2023/05/14 05:21:46;;;;;;;25.25;18.73;;;;;;;12.52;100.00;101786.22;5062093;28;19913;-69
2023/05/14 05:24:12;;;;;;;;;;;;;;;12.77;100.00;101776.91;5056382;28;20554;-69
2023/05/14 05:26:37;;;;;;;21.88;19.40;;;;;;;12.48;100.00;101788.31;5067414;28;19920;-69
2023/05/14 05:29:03;;;;;;;;;;;;;;;12.78;100.00;101781.28;5066688;28;20044;-69
2023/05/14 05:31:29;;;;;;;22.13;19.40;;;;;;;12.53;100.00;101779.03;5066240;28;20008;-69
2023/05/14 05:33:54;;;;;;;;;;;;;;;12.78;100.00;101783.09;5062998;28;20029;-69
2023/05/14 05:36:19;;;;;;;25.80;19.37;;;;;;;12.62;100.00;101775.56;5060708;28;20442;-69
2023/05/14 05:38:44;;;;;;;;;;;;;;;12.83;100.00;101778.19;5063772;28;20039;-69
2023/05/14 05:41:10;;;;;;;24.27;20.03;;;;;;;12.70;100.00;101781.09;5058631;28;19987;-68
2023/05/14 05:43:35;;;;;;;22.95;19.70;;;;;;;12.69;100.00;101782.06;5075050;28;20285;-68
2023/05/14 05:46:01;;;;;;;;;;;;;;;12.94;100.00;101780.78;5059819;28;20024;-69
2023/05/14 05:48:26;;;;;;;22.80;18.50;;;;;;;12.72;100.00;101780.97;5059465;28;20084;-70
2023/05/14 05:50:51;;;;;;;;;;;;;;;12.96;100.00;101778.81;5062516;28;20032;-69
2023/05/14 05:53:17;;;;;;;20.75;18.15;;;;;;;12.77;100.00;101779.59;5068924;28;20010;-69
2023/05/14 05:55:42;;;;;;;;;;;;;;;13.01;100.00;101778.44;5064406;28;20078;-68
2023/05/14 05:58:07;;;;;;;20.20;18.03;;;;;;;12.94;100.00;101779.91;5061492;28;19940;-69
2023/05/14 06:00:33;;;;;;;23.93;20.03;;;;;;;12.96;100.00;101788.69;5063298;28;20300;-69
2023/05/14 06:02:58;;;;;;;;;;;;;;;13.22;100.00;101783.72;5057132;28;20293;-69
2023/05/14 06:05:23;;;;;;;23.05;17.67;;;;;;;13.11;100.00;101797.19;5062337;28;20376;-69
2023/05/14 06:07:48;;;;;;;;;;;;;;;13.38;100.00;101797.44;5062494;28;20525;-69
2023/05/14 06:10:14;;;;;;;21.53;17.37;;;;;;;13.28;100.00;101793.88;5062544;28;19920;-70
2023/05/14 06:12:39;;;;;;;23.90;18.40;;;;;;;13.28;100.00;101801.91;5057383;28;20821;-69
2023/05/14 06:15:05;;;;;;;;;;;;;;;13.56;100.00;101804.81;5059603;28;20277;-69
2023/05/14 06:17:30;;;;;;;21.75;17.92;;;;;;;13.61;100.00;101805.25;5063089;28;20443;-69
2023/05/14 06:19:55;;;;;;;;;;;;;;;13.77;100.00;101799.34;5071004;28;20029;-69
2023/05/14 06:22:21;;;;;;;21.83;17.30;;;;;;;13.83;100.00;101805.97;5061947;28;19920;-70
2023/05/14 06:24:46;;;;;;;;;;;;;;;14.09;100.00;101806.25;5061061;28;20283;-69
2023/05/14 06:27:11;;;;;;;19.92;17.63;;;;;;;14.14;100.00;101810.19;5060259;28;19908;-69
2023/05/14 06:29:37;;;;;;;;;;;;;;;14.32;100.00;101807.66;5055539;28;20033;-69
2023/05/14 06:32:03;;;;;;;19.73;17.70;;;;;;;14.23;100.00;101810.34;5058655;28;19912;-69
2023/05/14 06:34:29;;;;;;;25.17;17.58;;;;;;;14.27;100.00;101817.97;5058186;28;20413;-69
2023/05/14 06:36:56;;;;;;;22.33;17.55;;;;;;;14.17;100.00;101809.94;5073231;28;20035;-69
2023/05/14 06:39:21;;;;;;;20.52;16.27;;;;;;;14.34;100.00;101812.84;5055261;28;20029;-69
2023/05/14 06:41:46;;;;;;;;;;;;;;;14.60;100.00;101814.97;5054834;28;20028;-69
2023/05/14 06:44:11;;;;;;;19.60;16.37;;;;;;;14.56;100.00;101812.53;5052389;28;19967;-69
2023/05/14 06:46:36;;;;;;;;;;;;;;;14.83;100.00;101812.78;5058446;28;20396;-69
2023/05/14 06:49:02;;;;;;;17.67;15.77;;;;;;;14.84;100.00;101809.94;5064587;28;20293;-69
2023/05/14 06:51:27;;;;;;;;;;;;;;;15.08;100.00;101805.91;5054373;28;20412;-70
2023/05/14 06:53:54;;;;;;;21.20;15.70;;;;;;;15.06;100.00;101806.06;5053120;28;19954;-70
2023/05/14 06:56:20;;;;;;;17.10;15.18;;;;;;;15.21;100.00;101802.88;5068661;28;20793;-69
2023/05/14 06:58:46;;;;;;;21.27;15.60;;;;;;;15.61;100.00;101801.63;5055390;28;20024;-70
2023/05/14 07:01:11;;;;;;;;;;;;;;;16.07;100.00;101805.13;5058203;28;20039;-70
2023/05/14 07:03:36;;;;;;;16.73;14.75;;;;;;;16.30;100.00;101802.78;5052942;28;19923;-70
2023/05/14 07:06:02;;;;;;;17.67;14.10;;;;;;;16.47;100.00;101801.06;5056291;28;20460;-70
2023/05/14 07:08:27;;;;;;;15.55;12.88;;;;;;;16.98;100.00;101803.91;5064559;28;20037;-70
2023/05/14 07:10:52;;;;;;;;;;;;;;;17.39;100.00;101802.22;5067959;28;20700;-70
2023/05/14 07:13:18;;;;;;;17.67;14.23;;;;;;;17.53;100.00;101800.75;5061893;28;19912;-68
2023/05/14 07:15:43;;;;;;;16.58;14.73;;;;;;;17.41;100.00;101791.28;5059624;28;20390;-68
2023/05/14 07:18:08;;;;;;;15.73;13.40;;;;;;;17.89;100.00;101795.06;5058578;28;20035;-68
2023/05/14 07:20:33;;;;;;;19.85;12.77;;;;;;;18.29;100.00;101798.78;5054469;28;20074;-68
2023/05/14 07:22:59;;;;;;;28.10;13.32;;;;;;;18.50;100.00;101794.72;5062985;28;20035;-68
2023/05/14 07:25:24;;;;;;;15.77;11.80;;;;;;;18.71;100.00;101791.47;5058316;28;20112;-68
2023/05/14 07:27:49;;;;;;;15.73;12.85;;;;;;;18.36;100.00;101798.13;5058234;28;20249;-68
2023/05/14 07:30:15;;;;;;;14.45;12.95;;;;;;;18.93;100.00;101799.88;5059801;28;20086;-69
2023/05/14 07:32:40;;;;;;;14.27;12.73;;;;;;;18.90;100.00;101795.66;5056607;28;20032;-69
2023/05/14 07:35:06;;;;;;;15.27;12.63;;;;;;;19.01;100.00;101797.16;5063103;28;20020;-69
2023/05/14 07:37:31;;;;;;;18.25;13.27;;;;;;;18.92;100.00;101801.75;5060428;28;20021;-69
2023/05/14 07:39:56;;;;;;;16.67;12.27;;;;;;;18.88;100.00;101798.53;5066166;28;20024;-68
2023/05/14 07:42:22;;;;;;;16.20;12.85;;;;;;;19.00;100.00;101800.84;5058769;28;20039;-69
2023/05/14 07:44:47;;;;;;;15.20;11.93;;;;;;;19.42;100.00;101803.22;5056552;28;20025;-69
2023/05/14 07:47:12;;;;;;;13.80;12.13;;;;;;;19.42;100.00;101800.50;5057082;28;20107;-69
2023/05/14 07:49:37;;;;;;;12.88;11.55;;;;;;;19.45;100.00;101807.41;5049079;28;20036;-69
2023/05/14 07:52:03;;;;;;;15.52;11.40;;;;;;;19.85;100.00;101799.25;5061442;28;20507;-68
2023/05/14 07:54:28;;;;;;;13.68;11.73;;;;;;;19.93;100.00;101791.03;5055259;28;20024;-69
2023/05/14 07:56:53;;;;;;;14.23;11.75;;;;;;;20.11;100.00;101788.88;5062318;28;20151;-69
2023/05/14 07:59:19;;;;;;;13.82;11.95;;;;;;;20.12;100.00;101782.41;5059014;28;20030;-69
2023/05/14 08:01:44;;;;;;;13.43;11.05;;;;;;;20.44;100.00;101787.72;5060285;28;20391;-69
2023/05/14 08:04:10;;;;;;;18.17;12.10;;;;;;;20.55;100.00;101779.16;5061998;28;20051;-69
2023/05/14 08:06:36;;;;;;;14.52;11.77;;;;;;;20.37;100.00;101783.06;5062330;28;20110;-69
2023/05/14 08:09:04;;;;;;;17.30;11.80;;;;;;;20.48;100.00;101775.50;5056623;28;20057;-69
2023/05/14 08:11:30;;;;;;;17.67;12.25;;;;;;;20.50;100.00;101781.56;5055957;28;20063;-69
2023/05/14 08:13:56;;;;;;;15.40;11.73;;;;;;;21.18;100.00;101786.88;5064829;28;20029;-69
2023/05/14 08:16:22;;;;;;;11.95;10.73;;;;;;;21.25;100.00;101782.41;5064222;28;20031;-69
2023/05/14 08:18:47;;;;;;;17.25;11.93;;;;;;;21.30;100.00;101780.81;5065886;28;20035;-69
2023/05/14 08:21:13;;;;;;;16.20;11.25;;;;;;;21.49;100.00;101790.22;5064270;28;20016;-69
2023/05/14 08:23:38;;;;;;;13.32;11.30;;;;;;;21.58;100.00;101784.66;5057628;28;20127;-70
2023/05/14 08:26:03;;;;;;;14.68;10.63;;;;;;;21.77;100.00;101777.75;5065132;28;20495;-70
2023/05/14 08:28:28;;;;;;;13.43;10.65;;;;;;;21.94;100.00;101779.19;5066138;28;20024;-70
2023/05/14 08:30:54;;;;;;;13.57;9.73;;;;;;;22.18;100.00;101787.97;5075314;28;20405;-69
2023/05/14 08:33:19;;;;;;;11.60;9.85;;;;;;;22.19;100.00;101786.91;5068325;28;20080;-69
2023/05/14 08:35:44;;;;;;;10.52;9.50;;;;;;;22.23;100.00;101786.31;5050477;28;20025;-69
2023/05/14 08:38:09;;;;;;;13.05;9.65;;;;;;;22.22;100.00;101781.91;5051099;28;20391;-69
2023/05/14 08:40:35;;;;;;;11.18;9.70;;;;;;;22.47;100.00;101784.22;5053101;28;20040;-69
2023/05/14 08:43:01;;;;;;;10.65;9.63;;;;;;;22.35;100.00;101781.22;5066182;28;20461;-69
2023/05/14 08:45:33;;;;;;;12.00;9.50;;;;;;;22.33;100.00;101780.56;5063357;28;20545;-69
2023/05/14 08:47:58;;;;;;;11.73;8.75;;;;;;;22.65;100.00;101764.66;5062063;28;20086;-69
2023/05/14 08:50:25;;;;;;;13.68;9.15;;;;;;;22.78;100.00;101766.63;5055496;28;20024;-69
2023/05/14 08:52:51;;;;;;;11.40;9.10;;;;;;;22.98;100.00;101764.88;5061472;28;20032;-69
2023/05/14 08:55:17;;;;;;;12.73;8.93;;;;;;;22.91;100.00;101766.69;5063680;28;20038;-69
2023/05/14 08:57:43;;;;;;;11.43;8.65;;;;;;;22.95;100.00;101767.13;5072575;28;20107;-69
2023/05/14 09:00:12;;;;;;;13.43;8.80;;;;;;;23.30;100.00;101753.47;5069140;28;20031;-69
2023/05/14 09:02:39;;;;;;;12.27;9.00;;;;;;;23.16;100.00;101761.59;5051982;28;20111;-70
2023/05/14 09:05:06;;;;;;;9.85;8.20;;;;;;;23.69;100.00;101749.16;5055144;28;20021;-69
2023/05/14 09:07:32;;;;;;;10.75;8.52;;;;;;;23.81;100.00;101754.84;5050284;28;20024;-69
2023/05/14 09:09:58;;;;;;;10.13;8.25;;;;;;;24.04;100.00;101749.84;5050421;28;20071;-69
2023/05/14 09:12:23;;;;;;;12.70;7.75;;;;;;;24.92;100.00;101752.19;5049584;28;20040;-69
2023/05/14 09:14:49;;;;;;;10.80;7.70;;;;;;;25.06;100.00;101743.94;5062963;28;20034;-69
2023/05/14 09:17:16;;;;;;;11.18;7.68;;;;;;;25.10;100.00;101739.72;5073801;28;20145;-69
2023/05/14 09:19:43;;;;;;;11.20;8.35;;;;;;;25.06;100.00;101730.31;5068309;28;20035;-70
2023/05/14 09:22:10;;;;;;;12.25;8.63;;;;;;;24.89;100.00;101735.41;5072861;28;20028;-70
2023/05/14 09:24:37;;;;;;;8.70;7.63;;;;;;;24.90;100.00;101732.47;5061160;28;20085;-70
2023/05/14 09:27:03;;;;;;;11.13;8.30;;;;;;;24.77;100.00;101728.97;5067922;28;20548;-69
2023/05/14 09:29:28;;;;;;;10.30;7.70;;;;;;;25.00;100.00;101732.03;5069936;28;20033;-70
2023/05/14 09:31:55;;;;;;;8.35;6.78;;;;;;;25.46;100.00;101732.84;5080310;28;20024;-70
2023/05/14 09:34:29;;;;;;;8.07;6.40;;;;;;;25.98;100.00;101729.94;5060282;28;20036;-69
2023/05/14 09:37:06;;;;;;;9.15;7.28;;;;;;;26.30;100.00;101729.88;5065833;28;20079;-70
2023/05/14 09:39:33;;;;;;;10.98;7.40;;;;;;;26.10;100.00;101725.41;5060489;28;20029;-70
2023/05/14 09:41:59;;;;;;;9.35;7.03;;;;;;;26.60;100.00;101736.25;5070905;28;20030;-70
2023/05/14 09:44:24;;;;;;;8.50;6.40;;;;;;;26.66;100.00;101728.22;5060714;28;20362;-70
2023/05/14 09:46:51;;;;;;;9.02;6.40;;;;;;;27.32;100.00;101723.81;5058974;28;20036;-70
2023/05/14 09:49:17;;;;;;;8.30;5.72;;;;;;;27.47;100.00;101723.38;5063665;28;20419;-70
2023/05/14 09:51:42;;;;;;;7.75;5.88;;;;;;;27.35;100.00;101724.19;5061900;28;20136;-70
2023/05/14 09:54:08;;;;;;;9.45;6.13;;;;;;;27.82;100.00;101731.69;5058067;28;20370;-69
2023/05/14 09:56:35;;;;;;;9.63;7.25;;;;;;;27.83;100.00;101719.63;5058435;28;20032;-71
2023/05/14 09:59:01;;;;;;;10.25;6.78;;;;;;;27.80;100.00;101717.34;5076278;28;20024;-69
2023/05/14 10:01:28;;;;;;;8.13;6.07;;;;;;;27.80;97.92;101706.38;5067439;28;20572;-70
2023/05/14 10:03:54;;;;;;;9.20;5.50;;;;;;;28.09;98.37;101718.34;5066004;28;20433;-70
2023/05/14 10:06:24;;;;;;;8.73;5.30;;;;;;;28.61;90.20;101716.78;5053977;28;20036;-70
2023/05/14 10:08:54;;;;;;;8.02;4.72;;;;;;;28.82;85.94;101713.38;5061001;28;20124;-70
2023/05/14 10:11:24;;;;;;;7.90;4.80;;;;;;;28.77;88.72;101709.69;5062292;28;20024;-70
2023/05/14 10:14:03;;;;;;;6.53;4.63;;;;;;;29.03;86.18;101711.03;5073694;28;20116;-70
2023/05/14 10:16:36;;;;;;;8.27;5.88;;;;;;;28.43;86.57;101701.28;5077890;28;20043;-70
2023/05/14 10:19:08;;;;;;;7.72;5.70;;;;;;;28.22;87.90;101708.22;5085252;28;20093;-70
2023/05/14 10:21:35;;;;;;;6.75;5.60;;;;;;;28.29;87.71;101709.75;5064074;28;20036;-70
2023/05/14 10:24:03;;;;;;;8.48;5.90;;;;;;;28.35;84.32;101702.50;5074777;28;20099;-70
2023/05/14 10:26:30;;;;;;;7.47;5.38;;;;;;;28.72;85.39;101701.34;5058189;28;20029;-70
2023/05/14 10:28:56;;;;;;;7.15;6.13;;;;;;;28.89;85.67;101699.50;5066276;28;20132;-70
2023/05/14 10:31:23;;;;;;;7.80;5.72;;;;;;;28.75;81.56;101700.88;5062125;28;20502;-70
2023/05/14 10:33:49;;;;;;;9.32;4.50;;;;;;;28.70;80.10;101692.53;5069339;28;20197;-68
2023/05/14 10:36:17;;;;;;;7.57;5.13;;;;;;;28.41;81.49;101698.78;5078657;28;20510;-70
2023/05/14 10:38:43;;;;;;;5.75;4.53;;;;;;;28.46;77.77;101690.66;5068790;28;20474;-71
2023/05/14 10:41:14;;;;;;;5.93;4.05;;;;;;;29.11;77.90;101696.91;5068156;28;20027;-70
2023/05/14 10:43:40;;;;;;;6.57;4.82;;;;;;;28.78;77.52;101695.72;5058765;28;20039;-71
2023/05/14 10:46:07;;;;;;;9.35;4.30;;;;;;;28.72;71.87;101690.38;5055308;28;20071;-71
2023/05/14 10:48:33;;;;;;;6.93;4.47;;;;;;;28.70;71.30;101685.16;5072776;28;20035;-70
2023/05/14 10:51:01;;;;;;;6.40;4.20;;;;;;;28.67;71.41;101686.44;5077490;28;20389;-70
2023/05/14 10:53:32;;;;;;;8.70;4.85;;;;;;;28.62;74.82;101680.84;5075868;28;20020;-71
2023/05/14 10:56:03;;;;;;;7.28;4.40;;;;;;;28.98;72.79;101678.81;5065957;28;20021;-70
2023/05/14 10:58:31;;;;;;;6.13;4.30;;;;;;;28.98;74.38;101675.22;5060127;28;20028;-70
2023/05/14 11:00:56;;;;;;;5.60;4.05;;;;;;;29.19;72.39;101674.56;5065056;28;20042;-70
2023/05/14 11:03:21;;;;;;;8.43;5.67;;;;;;;28.87;73.33;101674.19;5069858;28;20481;-70
2023/05/14 11:05:47;;;;;;;6.93;4.63;;;;;;;29.36;71.79;101671.81;5078862;28;20296;-70
2023/05/14 11:08:13;;;;;;;7.53;4.97;;;;;;;29.11;75.03;101677.69;5056422;28;20503;-71
2023/05/14 11:10:38;;;;;;;9.00;4.25;;;;;;;29.79;68.94;101667.63;5054226;28;20033;-71
2023/05/14 11:13:03;;;;;;;8.15;4.47;;;;;;;29.14;67.28;101668.13;5065261;28;20016;-70
2023/05/14 11:15:30;;;;;;;6.63;4.90;;;;;;;29.19;70.28;101659.97;5073335;28;20119;-70
2023/05/14 11:17:55;;;;;;;7.63;5.50;;;;;;;29.41;69.17;101658.19;5070181;28;20039;-70